Latest Weather Observations for Scherger

IDQ60801

Issued at 2:02 pm EST Thursday 2 April 2015 (issued every 30 minutes, with the page automatically refreshed every 10 minutes)

About weather observations | Map of weather stations | Latest weather observations for QLD | Other Formats
Station Details ID: 027075 Name: SCHERGER RAAF Lat: -12.62 Lon: 142.09 Height: 39.34 m
Data from the previous 72 hours. | See also: Recent months at Scherger
Date/Time
EST
Temp
°C
App
Temp
°C
Dew
Point
Rel
Hum
%
Delta-T
°C
Wind Press
QNH
hPa
Press
MSL
hPa
Rain
since 9 am
mm
Dir
 
Spd
km/h
Gust
km/h
Spd
kts
Gust
kts
02/02:00pm 32.4 35.0 23.3 58 6.3 E 15 22 8 12 1007.7 1007.4 0.0
02/01:30pm 32.9 36.4 23.5 57 6.5 E 11 20 6 11 1008.0 1007.7 0.0
02/01:00pm 31.9 34.8 23.2 60 6.0 E 13 22 7 12 1008.5 1008.2 0.0
02/12:30pm 32.2 35.6 23.4 59 6.1 E 11 17 6 9 1009.0 1008.7 0.0
02/12:00pm 32.2 35.4 23.7 61 5.9 E 13 24 7 13 1009.6 1009.3 0.0
02/11:30am 31.3 34.0 23.4 63 5.5 ENE 15 24 8 13 1010.3 1010.0 0.0
02/11:00am 30.3 33.0 23.5 67 4.7 E 15 24 8 13 1010.7 1010.4 0.0
02/10:30am 29.9 32.7 23.6 69 4.4 E 15 28 8 15 1011.0 1010.7 0.0
02/10:00am 30.0 33.3 23.9 70 4.2 E 13 24 7 13 1011.1 1010.8 0.0
02/09:30am 29.2 32.0 23.6 72 3.9 E 15 28 8 15 1011.0 1010.7 0.0
02/09:00am 28.4 31.7 23.8 76 3.2 ESE 13 24 7 13 1011.2 1010.9 0.8
02/08:30am 27.1 31.0 23.6 81 2.4 ESE 9 19 5 10 1011.1 1010.8 0.8
02/08:00am 25.9 30.2 23.6 87 1.6 ESE 7 13 4 7 1010.8 1010.5 0.8
02/07:30am 24.8 30.3 23.4 92 1.0 CALM 0 0 0 0 1010.6 1010.3 0.8
02/07:00am 23.8 28.9 22.6 93 0.8 CALM 0 0 0 0 1010.2 1009.9 0.8
02/06:30am 23.6 28.5 22.4 93 0.8 CALM 0 0 0 0 1009.9 1009.6 0.8
02/05:30am 23.8 28.6 22.2 91 1.1 CALM 0 0 0 0 1009.4 1009.1 0.8
02/05:00am 23.9 28.8 22.3 91 1.1 CALM 0 0 0 0 1008.9 1008.6 0.8
02/04:30am 24.2 29.3 22.6 91 1.1 CALM 0 0 0 0 1008.7 1008.4 0.8
02/04:00am 24.3 29.0 22.6 90 1.1 ESE 2 9 1 5 1008.5 1008.2 0.8
02/03:30am 24.3 28.2 22.6 90 1.1 ESE 6 7 3 4 1008.4 1008.1 0.8
02/03:00am 24.3 28.6 22.6 90 1.1 ESE 4 7 2 4 1008.7 1008.4 0.8
02/02:30am 24.2 28.1 22.5 90 1.1 ESE 6 7 3 4 1008.9 1008.6 0.8
02/02:00am 24.4 29.1 22.7 90 1.1 E 2 6 1 3 1009.2 1008.9 0.8
02/01:30am 24.6 29.1 22.3 87 1.5 ESE 2 7 1 4 1009.6 1009.3 0.8
02/01:00am 24.8 29.8 22.5 87 1.5 CALM 0 0 0 0 1009.9 1009.6 0.8
02/12:30am 25.3 29.5 22.4 84 1.9 ESE 4 9 2 5 1010.5 1010.2 0.8
02/12:00am 25.6 29.3 22.5 83 2.1 ESE 7 13 4 7 1010.4 1010.1 0.8
 
Date/Time
EST
Temp
°C
App
Temp
°C
Dew
Point
Rel
Hum
%
Delta-T
°C
Wind Press
QNH
hPa
Press
MSL
hPa
Rain
since 9 am
mm
Dir
 
Spd
km/h
Gust
km/h
Spd
kts
Gust
kts
01/11:30pm 25.9 29.6 22.6 82 2.2 ESE 7 11 4 6 1010.7 1010.4 0.8
01/11:00pm 25.9 29.6 22.6 82 2.2 ESE 7 13 4 7 1010.7 1010.4 0.8
01/10:30pm 26.0 30.1 22.3 80 2.5 ESE 4 11 2 6 1010.7 1010.4 0.8
01/10:00pm 26.6 30.6 22.7 79 2.6 ESE 6 7 3 4 1010.7 1010.4 0.8
01/09:00pm 27.6 30.5 22.5 74 3.5 ESE 11 20 6 11 1010.4 1010.1 0.8
01/08:30pm 28.0 31.4 22.7 73 3.6 E 9 15 5 8 1009.9 1009.6 0.8
01/08:00pm 27.9 31.6 22.6 73 3.6 ESE 7 11 4 6 1009.3 1009.0 0.8
01/07:30pm 28.2 33.1 22.4 71 3.9 CALM 0 6 0 3 1008.9 1008.6 0.8
01/07:00pm 28.9 32.5 22.4 68 4.4 SE 7 13 4 7 1008.6 1008.3 0.8
01/06:30pm 29.7 33.0 21.9 63 5.3 ESE 7 13 4 7 1008.0 1007.7 0.8
01/06:00pm 30.6 33.6 21.9 59 5.9 E 9 20 5 11 1007.8 1007.5 0.8
01/05:30pm 31.7 34.9 22.4 58 6.4 E 9 17 5 9 1007.6 1007.3 0.8
01/05:00pm 31.9 34.3 22.3 56 6.6 E 13 19 7 10 1007.6 1007.3 0.8
01/04:30pm 32.2 34.9 22.9 58 6.4 E 13 19 7 10 1007.7 1007.4 0.8
01/04:00pm 32.5 35.8 23.2 58 6.4 ESE 11 17 6 9 1007.7 1007.4 0.8
01/03:30pm 32.4 36.3 23.6 59 6.1 ESE 9 17 5 9 1007.9 1007.6 0.8
01/03:00pm 31.7 35.6 23.0 60 6.0 ESE 7 15 4 8 1008.1 1007.8 0.8
01/02:30pm 30.2 33.6 24.1 70 4.2 SSE 13 19 7 10 1008.6 1008.3 0.8
01/02:00pm 28.0 29.4 22.9 74 3.5 SSE 20 30 11 16 1008.9 1008.6 0.8
01/01:30pm 32.1 35.0 23.1 59 6.2 ENE 13 22 7 12 1009.2 1008.9 0.0
01/01:00pm 32.3 36.2 24.3 62 5.6 ESE 11 19 6 10 1009.7 1009.4 0.0
01/12:30pm 31.8 34.4 23.3 60 5.9 SE 15 22 8 12 1010.2 1009.9 0.0
01/12:00pm 31.6 34.9 23.2 61 5.8 E 11 20 6 11 1010.6 1010.3 0.0
01/11:30am 30.5 32.9 22.9 64 5.2 ESE 15 26 8 14 1010.9 1010.6 0.0
01/11:00am 30.2 32.0 22.6 63 5.2 ESE 17 30 9 16 1011.5 1011.2 0.0
01/10:30am 29.7 32.5 23.6 69 4.2 ESE 15 28 8 15 1011.7 1011.4 0.0
01/10:00am 29.7 32.2 23.2 68 4.5 E 15 26 8 14 1011.8 1011.5 0.0
01/09:30am 29.1 32.5 23.3 71 4.0 E 11 19 6 10 1011.8 1011.5 0.0
01/09:00am 28.9 32.3 23.3 72 3.8 ESE 11 19 6 10 1011.7 1011.4 0.0
01/08:30am 28.0 30.9 23.1 74 3.3 ESE 13 20 7 11 1011.7 1011.4 0.0
01/08:00am 26.8 30.4 23.1 80 2.5 E 9 15 5 8 1011.4 1011.1 0.0
01/07:30am 25.4 29.7 23.3 88 1.4 SE 6 9 3 5 1011.3 1011.0 0.0
01/07:00am 24.0 27.9 22.6 92 0.9 SE 6 9 3 5 1011.1 1010.8 0.0
01/06:30am 23.8 27.4 22.4 92 0.9 SE 7 9 4 5 1010.7 1010.4 0.0
01/06:00am 23.7 27.4 22.3 92 0.9 SE 6 9 3 5 1010.3 1010.0 0.0
01/05:30am 23.7 27.3 22.3 92 0.9 S 7 9 4 5 1010.2 1009.9 0.0
01/05:00am 23.7 27.3 22.0 90 1.1 SSW 6 7 3 4 1010.0 1009.7 0.0
01/04:30am 24.1 28.6 22.2 89 1.3 SSE 2 7 1 4 1009.9 1009.6 0.0
01/04:00am 24.1 27.8 22.2 89 1.3 SE 6 7 3 4 1009.6 1009.3 0.0
01/03:30am 24.4 27.9 22.1 87 1.5 SE 7 11 4 6 1009.6 1009.3 0.0
01/03:00am 25.0 28.3 22.5 86 1.7 SE 9 17 5 9 1009.8 1009.5 0.0
01/02:30am 25.3 28.3 22.6 85 1.8 ESE 11 20 6 11 1010.0 1009.7 0.0
01/02:00am 25.0 28.7 22.5 86 1.7 ESE 7 11 4 6 1010.5 1010.2 0.0
01/01:30am 25.0 28.9 22.5 86 1.7 ESE 6 11 3 6 1011.2 1010.9 0.0
01/01:00am 25.1 28.9 22.4 85 1.8 ESE 6 9 3 5 1011.5 1011.2 0.0
01/12:30am 25.3 28.5 22.4 84 1.9 ESE 9 11 5 6 1011.6 1011.3 0.0
01/12:00am 25.3 29.0 22.2 83 2.1 ESE 6 9 3 5 1011.8 1011.5 0.0
 
Date/Time
EST
Temp
°C
App
Temp
°C
Dew
Point
Rel
Hum
%
Delta-T
°C
Wind Press
QNH
hPa
Press
MSL
hPa
Rain
since 9 am
mm
Dir
 
Spd
km/h
Gust
km/h
Spd
kts
Gust
kts
31/11:30pm 25.6 28.8 22.3 82 2.2 ESE 9 13 5 7 1012.1 1011.8 0.0
31/11:00pm 25.7 29.3 22.4 82 2.2 ESE 7 11 4 6 1012.3 1012.0 0.0
31/10:30pm 26.0 29.2 22.3 80 2.5 SE 9 13 5 7 1012.4 1012.1 0.0
31/10:00pm 26.1 29.6 22.2 79 2.6 ESE 7 11 4 6 1012.2 1011.9 0.0
31/09:30pm 26.5 30.2 22.3 78 2.8 ESE 6 7 3 4 1012.2 1011.9 0.0
31/09:00pm 27.1 30.3 22.3 75 3.2 ESE 9 13 5 7 1011.9 1011.6 0.0
31/08:30pm 27.4 30.2 22.3 73 3.4 ESE 11 15 6 8 1011.5 1011.2 0.0
31/08:00pm 27.5 31.0 22.2 73 3.6 ESE 7 13 4 7 1011.0 1010.7 0.0
31/07:30pm 27.4 31.4 22.1 73 3.6 E 4 9 2 5 1010.7 1010.4 0.0
31/07:00pm 28.0 33.0 22.5 72 3.7 CALM 0 0 0 0 1010.4 1010.1 0.0
31/06:30pm 28.7 32.3 22.0 67 4.5 ESE 6 9 3 5 1010.1 1009.8 0.0
31/06:00pm 29.3 32.6 21.8 64 5.1 E 7 13 4 7 1009.6 1009.3 0.0
31/05:30pm 29.9 32.2 22.1 63 5.3 ESE 13 26 7 14 1009.3 1009.0 0.0
31/05:00pm 30.8 33.7 23.2 64 5.2 ESE 13 20 7 11 1009.2 1008.9 0.0
31/04:30pm 30.3 34.1 23.5 67 4.7 ESE 9 15 5 8 1009.2 1008.9 0.0
31/04:00pm 27.6 30.8 23.0 76 3.1 SE 11 20 6 11 1009.3 1009.0 0.0
31/03:49pm 27.3 27.9 21.3 69 4.0 ESE 20 37 11 20 1009.3 1009.0 0.0
31/03:30pm 32.4 34.7 22.8 57 6.6 ESE 15 26 8 14 1008.8 1008.5 0.0
31/03:00pm 31.7 34.7 22.7 59 6.2 ESE 11 24 6 13 1009.0 1008.7 0.0
31/02:30pm 31.2 33.0 22.5 60 5.9 SE 17 28 9 15 1009.5 1009.2 0.0
31/02:00pm 31.4 33.1 22.4 59 6.2 ESE 17 30 9 16 1009.8 1009.5 0.0
31/01:30pm 31.8 33.2 22.5 58 6.4 SE 19 28 10 15 1010.3 1010.0 0.0
31/01:00pm 31.6 33.2 23.2 61 5.8 SE 20 30 11 16 1010.8 1010.5 0.0
31/12:30pm 31.5 33.8 22.8 60 6.0 E 15 22 8 12 1011.1 1010.8 0.0
31/12:00pm 30.9 32.3 21.9 58 6.1 ESE 17 24 9 13 1011.7 1011.4 0.0
31/11:30am 31.2 33.1 22.8 61 5.8 SE 17 24 9 13 1012.1 1011.8 0.0
31/11:00am 31.2 33.5 22.8 61 5.8 E 15 33 8 18 1012.6 1012.3 0.0
31/10:30am 30.3 32.5 23.2 65 4.9 ESE 17 32 9 17 1013.0 1012.7 0.0
31/10:00am 30.3 32.5 23.2 65 4.9 E 17 32 9 17 1013.2 1012.9 0.0
31/09:30am 28.8 30.6 22.5 68 4.3 ESE 17 30 9 16 1013.3 1013.0 0.0
31/09:00am 28.3 30.6 22.8 72 3.7 ESE 15 24 8 13 1013.3 1013.0 0.0
31/08:30am 27.3 30.4 22.9 77 3.0 SE 11 20 6 11 1013.2 1012.9 0.0
31/08:00am 25.8 29.5 22.5 82 2.2 ESE 7 13 4 7 1013.3 1013.0 0.0
31/07:30am 24.4 29.3 22.3 88 1.4 CALM 0 0 0 0 1012.9 1012.6 0.0
31/07:00am 23.4 28.0 21.8 91 1.1 CALM 0 0 0 0 1012.6 1012.3 0.0
31/06:30am 23.1 27.6 21.5 91 1.1 CALM 0 0 0 0 1012.2 1011.9 0.0
31/06:00am 23.4 28.0 21.7 90 1.1 CALM 0 0 0 0 1011.6 1011.3 0.0
31/05:30am 23.7 28.2 21.6 88 1.4 CALM 0 0 0 0 1011.5 1011.2 0.0
31/05:00am 23.9 27.4 21.8 88 1.4 SE 6 9 3 5 1011.4 1011.1 0.0
31/04:30am 24.1 27.4 21.8 87 1.5 SE 7 11 4 6 1011.2 1010.9 0.0
31/04:00am 24.2 27.5 21.9 87 1.5 SE 7 11 4 6 1011.1 1010.8 0.0
31/03:30am 24.2 27.4 21.7 86 1.7 SE 7 11 4 6 1011.2 1010.9 0.0
31/03:00am 24.4 27.6 21.7 85 1.8 SE 7 11 4 6 1011.3 1011.0 0.0
31/02:30am 24.6 27.5 21.7 84 1.9 SE 9 13 5 7 1011.6 1011.3 0.0
31/02:00am 24.7 28.3 22.0 85 1.8 ESE 6 11 3 6 1011.9 1011.6 0.0
31/01:30am 24.5 27.9 22.0 86 1.7 ESE 7 11 4 6 1012.2 1011.9 0.0
31/01:00am 24.2 27.7 21.9 87 1.5 SSE 6 9 3 5 1012.5 1012.2 0.0
31/12:30am 24.4 28.0 22.1 87 1.5 SSE 6 9 3 5 1012.9 1012.6 0.0
31/12:00am 24.5 28.0 21.8 85 1.8 SSE 6 9 3 5 1013.2 1012.9 0.0
 
Date/Time
EST
Temp
°C
App
Temp
°C
Dew
Point
Rel
Hum
%
Delta-T
°C
Wind Press
QNH
hPa
Press
MSL
hPa
Rain
since 9 am
mm
Dir
 
Spd
km/h
Gust
km/h
Spd
kts
Gust
kts
30/11:30pm 24.9 28.4 21.8 83 2.1 SSE 6 7 3 4 1013.5 1013.2 0.0
30/11:00pm 25.3 28.6 21.8 81 2.3 SSE 7 13 4 7 1013.7 1013.4 0.0
30/10:30pm 25.7 29.0 21.8 79 2.6 ESE 7 11 4 6 1013.8 1013.5 0.0
30/10:00pm 26.1 29.3 21.7 77 2.9 ESE 7 13 4 7 1013.9 1013.6 0.0
30/09:30pm 26.5 29.7 21.7 75 3.2 ESE 7 13 4 7 1014.0 1013.8 0.0
30/09:00pm 27.0 29.8 21.5 72 3.7 E 9 17 5 9 1013.6 1013.3 0.0
30/08:30pm 27.4 30.6 21.7 71 3.8 E 7 13 4 7 1013.3 1013.0 0.0
30/08:00pm 27.9 30.2 21.4 67 4.3 E 11 20 6 11 1012.9 1012.6 0.0
30/07:30pm 28.4 30.9 21.7 67 4.5 E 11 19 6 10 1012.4 1012.1 0.0
30/07:00pm 29.0 31.0 21.5 64 5.0 ESE 13 20 7 11 1011.9 1011.6 0.0
30/06:30pm 29.5 31.0 21.2 61 5.5 E 15 26 8 14 1011.5 1011.2 0.0
30/06:00pm 30.3 31.0 20.5 55 6.5 ESE 17 26 9 14 1011.1 1010.8 0.0
30/05:30pm 31.1 32.6 21.3 56 6.6 ESE 15 30 8 16 1010.9 1010.6 0.0
30/05:00pm 30.9 32.5 21.4 57 6.4 E 15 28 8 15 1010.7 1010.4 0.0
30/04:30pm 32.2 34.8 22.6 57 6.6 ESE 13 20 7 11 1010.4 1010.1 0.0
30/04:00pm 32.0 33.6 22.1 55 6.7 ESE 17 28 9 15 1010.2 1009.9 0.0
30/03:30pm 31.6 33.6 22.9 60 6.0 ESE 17 30 9 16 1010.0 1009.7 0.0
30/03:00pm 32.4 34.4 22.2 55 7.0 ESE 15 26 8 14 1009.9 1009.6 0.0
30/02:30pm 32.6 33.9 22.4 55 7.0 E 19 28 10 15 1009.9 1009.6 0.0

Other Formats:

Comma delimited format used in spreadsheet applications
http://www.bom.gov.au/fwo/IDQ60801/IDQ60801.94171.axf

JavaScript Object Notation format (JSON) in row-major order
http://www.bom.gov.au/fwo/IDQ60801/IDQ60801.94171.json